Time;durP1;ratioP1;P1;durP2;ratioP2;P2;SDS_P1;SDS_P2;PMS_P1;PMS_P2;Temp;Humidity;BMP_temperature;BMP_pressure;BME280_temperature;BME280_humidity;BME280_pressure;Samples;Min_cycle;Max_cycle;Signal;HPM_P1;HPM_P2
2023/07/06 00:02:29;;;;;;;7.15;4.53;;;26.50;67.50;;;;;;7642196;22;80129;-62
2023/07/06 00:05:30;;;;;;;6.72;3.85;;;26.50;67.60;;;;;;7642378;22;80644;-61
2023/07/06 00:08:31;;;;;;;8.48;4.30;;;26.50;67.70;;;;;;7641691;22;81434;-62
2023/07/06 00:11:31;;;;;;;7.68;3.97;;;26.50;67.80;;;;;;7641644;22;80369;-62
2023/07/06 00:14:32;;;;;;;8.13;4.80;;;26.50;67.80;;;;;;7641405;22;79746;-62
2023/07/06 00:17:32;;;;;;;7.13;4.05;;;26.50;67.70;;;;;;7642016;22;80583;-63
2023/07/06 00:20:35;;;;;;;5.75;3.97;;;26.50;67.70;;;;;;7641749;22;80761;-61
2023/07/06 00:23:36;;;;;;;9.32;3.95;;;26.50;67.90;;;;;;7642381;22;80265;-68
2023/07/06 00:26:36;;;;;;;7.20;4.63;;;26.50;67.80;;;;;;7642447;22;81248;-67
2023/07/06 00:29:46;;;;;;;8.55;4.18;;;26.50;67.60;;;;;;7642206;22;81339;-68
2023/07/06 00:32:47;;;;;;;7.88;4.40;;;26.50;67.60;;;;;;7614670;22;81829;-68
2023/07/06 00:54:28;;;;;;;6.15;3.70;;;26.50;67.00;;;;;;7639012;22;84278;-66
2023/07/06 00:57:29;;;;;;;7.22;3.67;;;26.50;66.90;;;;;;7641266;22;80494;-66
2023/07/06 01:00:30;;;;;;;7.30;4.68;;;26.50;66.80;;;;;;7614591;22;81964;-65
2023/07/06 01:03:31;;;;;;;7.38;4.40;;;26.50;66.70;;;;;;7641851;22;80755;-65
2023/07/06 01:06:31;;;;;;;5.43;3.88;;;26.50;66.50;;;;;;7613274;22;83250;-66
2023/07/06 01:09:32;;;;;;;7.65;3.78;;;26.50;66.30;;;;;;7642123;22;80577;-65
2023/07/06 01:12:33;;;;;;;6.30;3.63;;;26.50;66.30;;;;;;7611764;22;81874;-65
2023/07/06 01:15:33;;;;;;;8.75;4.70;;;26.50;66.20;;;;;;7611503;22;82784;-67
2023/07/06 01:18:34;;;;;;;6.45;3.67;;;26.50;66.10;;;;;;7638588;22;80839;-65
2023/07/06 01:21:35;;;;;;;5.97;3.95;;;26.40;66.00;;;;;;7639032;22;81531;-66
2023/07/06 01:24:35;;;;;;;5.65;3.78;;;26.40;65.90;;;;;;7638049;22;80514;-66
2023/07/06 01:27:36;;;;;;;5.90;3.35;;;26.50;65.90;;;;;;7639475;22;80876;-67
2023/07/06 01:30:37;;;;;;;8.18;4.32;;;26.40;65.80;;;;;;7614636;22;83287;-66
2023/07/06 01:33:37;;;;;;;11.30;4.07;;;26.40;65.80;;;;;;7642713;22;80808;-68
2023/07/06 01:36:38;;;;;;;6.50;4.40;;;26.40;65.70;;;;;;7642775;22;80254;-69
2023/07/06 01:39:38;;;;;;;6.30;3.83;;;26.40;65.70;;;;;;7641835;22;80885;-69
2023/07/06 01:42:40;;;;;;;6.90;4.53;;;26.40;65.80;;;;;;7615319;22;83235;-69
2023/07/06 01:45:41;;;;;;;6.75;4.35;;;26.40;65.70;;;;;;7615208;22;82070;-68
2023/07/06 01:48:43;;;;;;;12.13;4.20;;;26.40;65.80;;;;;;7611443;22;83210;-65
2023/07/06 01:51:43;;;;;;;5.97;4.40;;;26.40;65.70;;;;;;7612189;22;81787;-66
2023/07/06 01:54:44;;;;;;;11.48;5.25;;;26.40;65.60;;;;;;7609194;22;83441;-66
2023/07/06 01:57:46;;;;;;;6.43;4.00;;;26.40;65.70;;;;;;7611517;22;81420;-65
2023/07/06 02:00:47;;;;;;;7.32;4.13;;;26.40;65.60;;;;;;7612419;22;83176;-66
2023/07/06 02:03:50;;;;;;;7.45;4.40;;;26.40;65.50;;;;;;7643129;22;80310;-65
2023/07/06 02:06:53;;;;;;;6.72;3.90;;;26.40;65.40;;;;;;7614766;22;80457;-64
2023/07/06 02:09:54;;;;;;;8.10;4.40;;;26.40;65.40;;;;;;7642506;22;80383;-65
2023/07/06 02:12:54;;;;;;;6.68;4.18;;;26.40;65.30;;;;;;7642302;22;80425;-68
2023/07/06 02:15:55;;;;;;;9.20;4.20;;;26.40;65.20;;;;;;7642585;22;80450;-69
2023/07/06 02:18:58;;;;;;;7.45;3.63;;;26.30;65.10;;;;;;7615924;22;81855;-68
2023/07/06 02:21:59;;;;;;;8.30;4.43;;;26.40;65.20;;;;;;7641637;22;80419;-70
2023/07/06 02:25:01;;;;;;;7.13;4.00;;;26.40;65.20;;;;;;7642035;22;79995;-71
2023/07/06 02:28:03;;;;;;;5.80;4.00;;;26.40;65.10;;;;;;7642665;22;80214;-68
2023/07/06 02:31:05;;;;;;;4.85;4.05;;;26.40;65.00;;;;;;7641531;22;80489;-69
2023/07/06 02:34:05;;;;;;;9.82;4.05;;;26.40;65.00;;;;;;7615806;22;81121;-69
2023/07/06 02:37:06;;;;;;;8.15;4.30;;;26.30;65.00;;;;;;7614445;22;85932;-68
2023/07/06 02:40:08;;;;;;;6.30;4.00;;;26.30;65.00;;;;;;7641717;22;80289;-68
2023/07/06 02:43:08;;;;;;;6.78;4.70;;;26.30;65.00;;;;;;7642262;22;80340;-69
2023/07/06 02:46:09;;;;;;;7.70;3.88;;;26.40;64.90;;;;;;7638398;22;81478;-69
2023/07/06 02:49:09;;;;;;;7.65;4.30;;;26.30;64.90;;;;;;7643917;22;80235;-69
2023/07/06 02:52:10;;;;;;;8.65;4.15;;;26.30;65.00;;;;;;7616608;22;81426;-68
2023/07/06 02:55:10;;;;;;;8.60;4.25;;;26.30;65.00;;;;;;7615849;22;82095;-67
2023/07/06 02:58:11;;;;;;;12.40;4.75;;;26.30;64.90;;;;;;7617093;22;83122;-67
2023/07/06 03:01:12;;;;;;;7.45;4.18;;;26.30;65.00;;;;;;7644516;22;80200;-72
2023/07/06 03:04:12;;;;;;;6.30;4.22;;;26.30;65.00;;;;;;7643101;22;80150;-70
2023/07/06 03:07:13;;;;;;;10.38;4.25;;;26.30;65.00;;;;;;7641901;22;80653;-70
2023/07/06 03:10:17;;;;;;;8.00;4.25;;;26.30;65.00;;;;;;7642072;22;80174;-68
2023/07/06 03:13:18;;;;;;;7.57;4.28;;;26.30;65.00;;;;;;7642544;22;80121;-67
2023/07/06 03:16:18;;;;;;;7.45;4.45;;;26.30;65.10;;;;;;7641840;22;80396;-67
2023/07/06 03:19:19;;;;;;;7.07;4.07;;;26.30;64.90;;;;;;7640485;22;80198;-66
2023/07/06 03:22:20;;;;;;;8.10;4.50;;;26.30;65.00;;;;;;7642432;22;80614;-66
2023/07/06 03:25:20;;;;;;;7.30;4.53;;;26.30;64.90;;;;;;7643272;22;81066;-69
2023/07/06 03:28:21;;;;;;;7.13;3.90;;;26.30;64.90;;;;;;7615370;22;81748;-67
2023/07/06 03:31:22;;;;;;;9.55;4.00;;;26.30;64.90;;;;;;7640612;22;80465;-69
2023/07/06 03:34:22;;;;;;;7.30;4.18;;;26.30;64.80;;;;;;7642078;22;80468;-69
2023/07/06 03:37:23;;;;;;;9.23;4.35;;;26.30;64.70;;;;;;7643066;22;80999;-66
2023/07/06 03:40:24;;;;;;;7.03;4.60;;;26.30;64.70;;;;;;7614660;22;81851;-67
2023/07/06 03:43:25;;;;;;;11.18;4.40;;;26.30;64.70;;;;;;7638205;22;81732;-70
2023/07/06 03:46:25;;;;;;;13.73;4.40;;;26.30;64.70;;;;;;7639710;22;87587;-68
2023/07/06 03:49:26;;;;;;;9.85;5.22;;;26.30;64.50;;;;;;7639282;22;80274;-70
2023/07/06 03:52:29;;;;;;;9.35;4.25;;;26.30;64.50;;;;;;7638902;22;80561;-69
2023/07/06 03:55:30;;;;;;;10.20;4.47;;;26.30;64.60;;;;;;7641181;22;81070;-67
2023/07/06 03:58:30;;;;;;;7.85;4.90;;;26.30;64.60;;;;;;7641676;22;86928;-70
2023/07/06 04:01:31;;;;;;;6.38;4.20;;;26.20;64.50;;;;;;7643164;22;80112;-68
2023/07/06 04:04:32;;;;;;;7.40;4.28;;;26.30;64.60;;;;;;7641141;22;81457;-66
2023/07/06 04:07:32;;;;;;;11.73;5.05;;;26.30;64.50;;;;;;7642673;22;80661;-66
2023/07/06 04:10:33;;;;;;;8.98;4.00;;;26.20;64.40;;;;;;7640241;22;80976;-72
2023/07/06 04:13:34;;;;;;;9.52;4.22;;;26.20;64.40;;;;;;7640623;22;80531;-68
2023/07/06 04:16:34;;;;;;;14.43;4.97;;;26.30;64.30;;;;;;7642106;22;81653;-67
2023/07/06 04:19:35;;;;;;;8.10;3.97;;;26.30;64.30;;;;;;7642774;22;80277;-65
2023/07/06 04:22:35;;;;;;;12.98;4.72;;;26.30;64.30;;;;;;7641796;22;81738;-69
2023/07/06 04:25:36;;;;;;;12.15;4.93;;;26.30;64.40;;;;;;7643415;22;80328;-63
2023/07/06 04:28:40;;;;;;;10.35;4.78;;;26.30;64.20;;;;;;7640178;22;80451;-67
2023/07/06 04:31:41;;;;;;;7.47;4.18;;;26.30;64.00;;;;;;7641317;22;81327;-67
2023/07/06 04:34:42;;;;;;;9.77;4.47;;;26.30;63.90;;;;;;7638761;22;80791;-65
2023/07/06 04:37:42;;;;;;;14.88;4.95;;;26.30;64.00;;;;;;7638574;22;80452;-65
2023/07/06 04:40:43;;;;;;;7.40;4.20;;;26.30;63.80;;;;;;7641986;22;80528;-70
2023/07/06 04:43:44;;;;;;;11.15;4.35;;;26.30;63.80;;;;;;7642250;22;80248;-72
2023/07/06 04:46:45;;;;;;;9.13;4.38;;;26.40;63.80;;;;;;7641443;22;81238;-72
2023/07/06 04:49:47;;;;;;;6.97;4.30;;;26.40;63.90;;;;;;7642698;22;81495;-70
2023/07/06 04:52:48;;;;;;;9.93;4.50;;;26.40;63.80;;;;;;7642240;22;80364;-68
2023/07/06 04:55:48;;;;;;;8.52;4.57;;;26.40;63.80;;;;;;7628982;22;81175;-70
2023/07/06 04:58:49;;;;;;;9.20;5.07;;;26.30;63.80;;;;;;7635157;22;80843;-58
2023/07/06 05:01:51;;;;;;;8.00;4.60;;;26.20;63.40;;;;;;7635448;22;80693;-59
2023/07/06 05:04:52;;;;;;;10.60;4.75;;;26.10;63.40;;;;;;7614474;22;81430;-58
2023/07/06 05:07:52;;;;;;;8.73;4.25;;;26.00;63.40;;;;;;7639223;22;80865;-58
2023/07/06 05:10:53;;;;;;;7.65;4.78;;;26.10;63.30;;;;;;7640685;22;80489;-56
2023/07/06 05:13:53;;;;;;;15.68;5.22;;;26.10;63.40;;;;;;7615194;22;81889;-58
2023/07/06 05:16:54;;;;;;;10.00;4.80;;;26.10;63.60;;;;;;7640760;22;80238;-67
2023/07/06 05:19:55;;;;;;;12.90;5.90;;;26.00;63.70;;;;;;7642325;22;80868;-66
2023/07/06 05:22:57;;;;;;;10.30;5.38;;;26.00;63.60;;;;;;7642335;22;81622;-66
2023/07/06 05:26:00;;;;;;;10.02;4.55;;;26.00;63.80;;;;;;7640923;22;80003;-66
2023/07/06 05:29:01;;;;;;;9.18;4.65;;;26.00;63.30;;;;;;7642415;22;81088;-68
2023/07/06 05:32:01;;;;;;;13.93;5.63;;;26.00;63.30;;;;;;7641218;22;80522;-70
2023/07/06 05:35:02;;;;;;;14.82;4.75;;;25.90;63.40;;;;;;7639747;22;81431;-69
2023/07/06 05:38:02;;;;;;;13.38;5.22;;;25.90;64.70;;;;;;7640851;22;81533;-68
2023/07/06 05:41:03;;;;;;;9.90;4.38;;;25.90;65.00;;;;;;7641906;22;81387;-68
2023/07/06 05:44:03;;;;;;;11.38;4.70;;;26.00;64.00;;;;;;7642432;22;80962;-71
2023/07/06 05:47:04;;;;;;;9.90;4.70;;;26.00;64.20;;;;;;7640684;22;80865;-71
2023/07/06 05:50:04;;;;;;;8.60;4.80;;;26.00;64.10;;;;;;7640317;22;80420;-72
2023/07/06 05:53:06;;;;;;;7.97;4.28;;;25.90;63.80;;;;;;7641810;22;80297;-70
2023/07/06 05:56:06;;;;;;;5.90;4.47;;;26.00;64.30;;;;;;7641626;22;80594;-71
2023/07/06 05:59:08;;;;;;;10.65;4.57;;;26.00;63.80;;;;;;7640717;22;79954;-70
2023/07/06 06:02:09;;;;;;;11.88;4.45;;;25.90;63.90;;;;;;7640266;22;80572;-67
2023/07/06 06:05:11;;;;;;;7.80;4.53;;;26.00;63.80;;;;;;7641283;22;80186;-68
2023/07/06 06:08:11;;;;;;;9.93;4.60;;;25.90;63.70;;;;;;7641652;22;80464;-68
2023/07/06 06:11:12;;;;;;;8.70;4.60;;;25.90;63.20;;;;;;7640959;22;80243;-73
2023/07/06 06:14:12;;;;;;;12.45;4.95;;;25.80;63.60;;;;;;7640837;22;80535;-75
2023/07/06 06:17:13;;;;;;;17.15;5.32;;;25.90;64.00;;;;;;7640575;22;80878;-70
2023/07/06 06:20:14;;;;;;;10.13;4.68;;;25.90;64.60;;;;;;7642049;22;81020;-68
2023/07/06 06:23:16;;;;;;;10.63;5.18;;;25.90;64.50;;;;;;7642914;22;80562;-68
2023/07/06 06:26:17;;;;;;;9.05;4.47;;;25.90;63.60;;;;;;7642435;22;80413;-70
2023/07/06 06:29:18;;;;;;;8.88;4.70;;;25.90;64.00;;;;;;7642020;22;80516;-67
2023/07/06 06:32:19;;;;;;;6.13;4.05;;;25.90;63.50;;;;;;7642299;22;80274;-70
2023/07/06 06:35:21;;;;;;;11.52;4.78;;;25.80;63.90;;;;;;7643670;22;81054;-68
2023/07/06 06:38:21;;;;;;;10.43;4.10;;;25.80;64.00;;;;;;7644369;22;80972;-67
2023/07/06 06:41:22;;;;;;;10.10;5.15;;;25.80;63.80;;;;;;7643592;22;80442;-67
2023/07/06 06:44:22;;;;;;;9.60;4.43;;;25.70;64.60;;;;;;7640840;22;80655;-69
2023/07/06 06:47:23;;;;;;;8.05;4.43;;;25.80;64.20;;;;;;7641554;22;80261;-71
2023/07/06 07:24:19;;;;;;;12.15;4.88;;;26.00;63.60;;;;;;7638403;22;80008;-69
2023/07/06 07:27:19;;;;;;;7.45;4.30;;;26.10;63.60;;;;;;7645130;22;80821;-62
2023/07/06 07:30:21;;;;;;;9.63;4.30;;;26.10;63.40;;;;;;7643950;22;80059;-60
2023/07/06 07:33:21;;;;;;;7.57;4.03;;;26.10;63.70;;;;;;7645350;22;80577;-62
2023/07/06 07:36:22;;;;;;;7.15;4.30;;;26.10;63.30;;;;;;7644385;22;80958;-61
2023/07/06 07:39:23;;;;;;;8.60;4.25;;;26.20;63.80;;;;;;7639996;22;80871;-60
2023/07/06 07:42:25;;;;;;;6.95;4.32;;;26.20;63.70;;;;;;7641895;22;81888;-60
2023/07/06 07:45:26;;;;;;;9.05;4.00;;;26.20;63.90;;;;;;7643224;22;88075;-61
2023/07/06 07:48:26;;;;;;;12.88;4.32;;;26.20;63.10;;;;;;7644374;22;80246;-61
2023/07/06 07:51:27;;;;;;;8.75;4.45;;;26.20;64.00;;;;;;7645563;22;79968;-61
2023/07/06 07:54:28;;;;;;;7.20;4.70;;;26.20;63.40;;;;;;7611861;22;82316;-62
2023/07/06 07:57:30;;;;;;;6.63;4.22;;;26.20;63.40;;;;;;7645158;22;80370;-62
2023/07/06 08:00:31;;;;;;;7.38;4.07;;;26.20;63.80;;;;;;7645944;22;81807;-61
2023/07/06 08:03:31;;;;;;;9.55;4.30;;;26.20;63.30;;;;;;7645616;22;80109;-63
2023/07/06 08:06:32;;;;;;;6.78;4.10;;;26.20;63.00;;;;;;7643623;22;80366;-62
2023/07/06 08:09:32;;;;;;;12.93;4.40;;;26.20;63.20;;;;;;7640757;22;80862;-60
2023/07/06 08:12:33;;;;;;;6.50;4.22;;;26.20;63.20;;;;;;7616490;22;83379;-63
2023/07/06 08:15:33;;;;;;;7.53;3.97;;;26.20;62.80;;;;;;7642023;22;80263;-62
2023/07/06 08:18:34;;;;;;;7.75;4.43;;;26.20;63.00;;;;;;7641847;22;80798;-62
2023/07/06 08:21:34;;;;;;;9.52;4.40;;;26.20;62.90;;;;;;7642462;22;80286;-62
2023/07/06 08:24:36;;;;;;;12.95;4.32;;;26.20;63.00;;;;;;7643461;22;80794;-62
2023/07/06 08:27:38;;;;;;;8.52;4.38;;;26.20;63.10;;;;;;7642349;22;79902;-63
2023/07/06 08:30:40;;;;;;;8.27;3.95;;;26.20;62.90;;;;;;7642656;22;80536;-61
2023/07/06 08:33:40;;;;;;;7.68;3.92;;;26.20;62.80;;;;;;7643243;22;80243;-63
2023/07/06 08:36:41;;;;;;;8.25;3.95;;;26.30;63.00;;;;;;7643172;22;81382;-63
2023/07/06 08:39:41;;;;;;;13.38;4.32;;;26.20;62.80;;;;;;7644862;22;81022;-64
2023/07/06 08:42:43;;;;;;;6.10;3.70;;;26.20;62.90;;;;;;7637274;22;80574;-58
2023/07/06 08:45:44;;;;;;;9.95;3.75;;;26.20;63.30;;;;;;7643066;22;80214;-60
2023/07/06 08:48:44;;;;;;;9.40;4.25;;;26.20;63.00;;;;;;7643481;22;81051;-63
2023/07/06 08:51:45;;;;;;;11.15;4.53;;;26.20;63.20;;;;;;7640864;22;80829;-62
2023/07/06 08:54:46;;;;;;;9.52;3.92;;;26.20;63.10;;;;;;7642858;22;80715;-63
2023/07/06 08:57:49;;;;;;;12.65;3.92;;;26.30;63.10;;;;;;7624281;22;80638;-61
2023/07/06 09:00:50;;;;;;;9.48;4.47;;;26.30;63.00;;;;;;7628499;22;81305;-64
2023/07/06 09:03:50;;;;;;;16.38;4.60;;;26.20;62.80;;;;;;7627073;22;81273;-62
2023/07/06 09:06:52;;;;;;;8.43;4.40;;;26.30;62.50;;;;;;7635959;22;80623;-62
2023/07/06 09:09:54;;;;;;;10.43;4.57;;;26.30;62.50;;;;;;7604222;22;81647;-63
2023/07/06 09:12:56;;;;;;;7.20;4.25;;;26.30;62.30;;;;;;7642004;22;80141;-62
2023/07/06 09:15:56;;;;;;;8.40;4.20;;;26.30;62.50;;;;;;7641311;22;81007;-60
2023/07/06 09:18:57;;;;;;;5.68;4.00;;;26.30;62.30;;;;;;7641576;22;80356;-60
2023/07/06 09:21:58;;;;;;;8.32;4.00;;;26.40;62.10;;;;;;7641606;22;81421;-60
2023/07/06 09:24:59;;;;;;;9.13;3.80;;;26.40;61.90;;;;;;7614939;22;83409;-60
2023/07/06 09:27:59;;;;;;;7.90;4.00;;;26.40;61.80;;;;;;7641442;22;81180;-59
2023/07/06 09:31:00;;;;;;;7.03;3.88;;;26.40;61.50;;;;;;7641761;22;80840;-60
2023/07/06 09:34:00;;;;;;;8.60;4.60;;;26.40;61.40;;;;;;7641547;22;80774;-60
2023/07/06 09:37:01;;;;;;;17.80;4.80;;;26.40;61.10;;;;;;7632318;22;80847;-60
2023/07/06 09:40:01;;;;;;;13.23;4.93;;;26.40;59.90;;;;;;7632638;22;81374;-59
2023/07/06 09:43:02;;;;;;;12.15;4.32;;;26.10;58.80;;;;;;7627873;22;80180;-59
2023/07/06 09:46:02;;;;;;;10.35;4.85;;;26.10;59.20;;;;;;7634447;22;81617;-61
2023/07/06 09:49:03;;;;;;;10.50;4.53;;;26.20;59.70;;;;;;7631420;22;81737;-59
2023/07/06 09:52:05;;;;;;;10.48;4.95;;;26.30;59.70;;;;;;7640688;22;80181;-59
2023/07/06 09:55:05;;;;;;;7.70;4.97;;;26.30;59.50;;;;;;7640176;22;81642;-61
2023/07/06 09:58:06;;;;;;;9.02;4.57;;;26.30;59.90;;;;;;7642177;22;82500;-61
2023/07/06 10:01:06;;;;;;;13.35;4.63;;;26.30;59.60;;;;;;7634515;22;85138;-62
2023/07/06 10:04:07;;;;;;;9.80;4.90;;;26.20;58.70;;;;;;7625465;22;81542;-62
2023/07/06 10:07:07;;;;;;;13.77;4.70;;;26.20;58.40;;;;;;7639716;22;80506;-61
2023/07/06 10:10:08;;;;;;;12.23;5.05;;;26.20;57.80;;;;;;7641177;22;80578;-63
2023/07/06 10:13:09;;;;;;;10.50;4.93;;;26.10;57.00;;;;;;7624954;22;81415;-60
2023/07/06 10:16:09;;;;;;;12.48;4.90;;;26.10;56.50;;;;;;7640224;22;80349;-61
2023/07/06 10:19:10;;;;;;;8.68;4.35;;;26.10;57.70;;;;;;7637039;22;80654;-60
2023/07/06 10:22:10;;;;;;;8.63;4.72;;;26.20;57.90;;;;;;7637283;22;80525;-59
2023/07/06 14:08:36;;;;;;;8.30;3.15;;;26.50;52.50;;;;;;7369175;22;83473;-59
2023/07/06 14:11:36;;;;;;;5.88;3.20;;;26.40;52.70;;;;;;6821638;22;83477;-59
2023/07/06 14:14:37;;;;;;;6.45;3.42;;;26.50;52.60;;;;;;6845798;22;83171;-59
2023/07/06 14:17:38;;;;;;;7.13;2.53;;;26.50;53.00;;;;;;6853304;22;84864;-60
2023/07/06 14:20:44;;;;;;;4.40;3.03;;;26.50;52.60;;;;;;6842886;22;83176;-59
2023/07/06 14:23:52;;;;;;;6.05;3.65;;;26.60;52.80;;;;;;6849694;22;84226;-60
2023/07/06 14:26:54;;;;;;;5.63;3.47;;;26.70;52.30;;;;;;6861440;22;84462;-58
2023/07/06 14:30:26;;;;;;;17.65;3.90;;;26.70;52.60;;;;;;6869986;22;82972;-59
2023/07/06 14:33:28;;;;;;;5.03;2.92;;;26.70;51.20;;;;;;6846922;22;84443;-58
2023/07/06 14:36:28;;;;;;;5.72;3.33;;;26.70;51.30;;;;;;6862473;22;83754;-58
2023/07/06 14:39:29;;;;;;;7.60;3.42;;;26.80;50.80;;;;;;6850487;22;83194;-59
2023/07/06 14:42:37;;;;;;;8.05;3.28;;;26.80;51.20;;;;;;6864774;22;84031;-59
2023/07/06 14:45:39;;;;;;;10.07;2.95;;;26.80;51.20;;;;;;6822594;22;83650;-58
2023/07/06 14:48:40;;;;;;;7.40;3.40;;;26.80;51.00;;;;;;6833557;22;83220;-58
2023/07/06 14:51:44;;;;;;;10.70;3.22;;;26.90;51.20;;;;;;6887062;22;84038;-58
2023/07/06 14:54:45;;;;;;;3.88;3.03;;;26.90;50.90;;;;;;6874625;22;83853;-60
2023/07/06 14:57:46;;;;;;;7.70;3.13;;;26.90;50.90;;;;;;6935699;22;83379;-60
2023/07/06 15:00:46;;;;;;;7.18;3.65;;;27.00;50.70;;;;;;7636933;22;81299;-59
2023/07/06 15:03:47;;;;;;;13.40;3.90;;;26.90;50.60;;;;;;7637792;22;80560;-60
2023/07/06 15:06:47;;;;;;;8.40;3.72;;;26.90;50.90;;;;;;7638997;22;80457;-63
2023/07/06 15:09:48;;;;;;;8.27;3.47;;;26.90;50.90;;;;;;7641363;22;80218;-66
2023/07/06 15:12:49;;;;;;;5.50;3.85;;;26.80;51.30;;;;;;7614462;22;82975;-66
2023/07/06 15:15:49;;;;;;;8.57;3.35;;;26.80;51.30;;;;;;7639004;22;80678;-66
2023/07/06 15:18:50;;;;;;;7.13;3.28;;;26.80;51.70;;;;;;7638650;22;80912;-66
2023/07/06 15:21:50;;;;;;;11.38;3.67;;;26.80;51.40;;;;;;7641862;22;80417;-67
2023/07/06 15:24:51;;;;;;;9.07;4.15;;;26.70;51.10;;;;;;7644546;22;80463;-69
2023/07/06 15:27:51;;;;;;;11.82;3.83;;;26.70;51.20;;;;;;7642593;22;80730;-70
2023/07/06 15:30:52;;;;;;;6.38;3.65;;;26.70;51.70;;;;;;7642250;22;80925;-71
2023/07/06 15:33:52;;;;;;;7.32;3.80;;;26.70;51.80;;;;;;7643267;22;80251;-68
2023/07/06 15:36:53;;;;;;;13.88;4.22;;;26.60;51.70;;;;;;7644071;22;80425;-66
2023/07/06 15:39:56;;;;;;;6.60;3.83;;;26.60;51.80;;;;;;7643835;22;80976;-67
2023/07/06 15:42:57;;;;;;;6.20;3.92;;;26.50;51.80;;;;;;7643480;22;80332;-68
2023/07/06 15:45:57;;;;;;;7.18;4.00;;;26.50;51.80;;;;;;7642777;22;80189;-68
2023/07/06 15:48:58;;;;;;;7.03;4.55;;;26.40;50.90;;;;;;7642714;22;80278;-67
2023/07/06 15:51:59;;;;;;;8.95;4.70;;;26.40;50.80;;;;;;7642295;22;80791;-68
2023/07/06 15:55:00;;;;;;;5.35;3.58;;;26.40;51.00;;;;;;7642276;22;81216;-69
2023/07/06 15:58:01;;;;;;;5.60;3.85;;;26.40;50.70;;;;;;7640137;22;80713;-69
2023/07/06 16:01:01;;;;;;;9.35;4.20;;;26.30;51.00;;;;;;7644821;22;81260;-71
2023/07/06 16:04:02;;;;;;;7.43;4.43;;;26.40;51.10;;;;;;7644125;22;80067;-76
2023/07/06 16:07:04;;;;;;;5.53;3.92;;;26.40;51.10;;;;;;7642353;22;80827;-71
2023/07/06 16:10:05;;;;;;;8.95;3.85;;;26.40;51.40;;;;;;7641790;22;81243;-72
2023/07/06 16:13:05;;;;;;;5.05;3.88;;;26.40;51.50;;;;;;7642237;22;80597;-73
2023/07/06 16:16:06;;;;;;;7.35;4.40;;;26.40;52.40;;;;;;7642866;22;80332;-72
2023/07/06 16:19:07;;;;;;;7.72;4.57;;;26.40;51.80;;;;;;7615387;22;86995;-69
2023/07/06 16:22:07;;;;;;;5.53;3.75;;;26.40;51.80;;;;;;7643928;22;81236;-74
2023/07/06 16:25:08;;;;;;;7.20;3.92;;;26.40;51.90;;;;;;7642253;22;80314;-70
2023/07/06 16:28:08;;;;;;;6.05;4.43;;;26.50;52.00;;;;;;7644387;22;80620;-71
2023/07/06 16:31:09;;;;;;;9.65;4.60;;;26.40;52.30;;;;;;7642990;22;80564;-72
2023/07/06 16:34:09;;;;;;;7.60;4.63;;;26.40;52.20;;;;;;7613188;22;82041;-68
2023/07/06 16:37:10;;;;;;;10.38;4.38;;;26.40;52.40;;;;;;7641508;22;80375;-68
2023/07/06 16:40:10;;;;;;;6.47;3.83;;;26.40;52.70;;;;;;7643121;22;80774;-71
2023/07/06 16:43:11;;;;;;;6.68;3.70;;;26.40;52.70;;;;;;7642828;22;81539;-69
2023/07/06 16:46:13;;;;;;;7.63;3.90;;;26.40;52.70;;;;;;7640167;22;80149;-71
2023/07/06 16:49:14;;;;;;;12.55;4.25;;;26.30;52.90;;;;;;7640344;22;80241;-69
2023/07/06 16:52:14;;;;;;;8.75;3.95;;;26.30;53.10;;;;;;7641843;22;80897;-68
2023/07/06 16:55:15;;;;;;;10.90;4.22;;;26.40;53.10;;;;;;7639020;22;80511;-67
2023/07/06 16:58:15;;;;;;;7.15;4.38;;;26.40;52.90;;;;;;7641814;22;81186;-69
2023/07/06 17:01:16;;;;;;;6.45;4.30;;;26.40;52.90;;;;;;7638880;22;82029;-63
2023/07/06 17:04:16;;;;;;;6.03;4.22;;;26.30;53.20;;;;;;7639714;22;80893;-71
2023/07/06 17:07:17;;;;;;;6.50;4.13;;;26.30;53.40;;;;;;7636919;22;80724;-74
2023/07/06 17:10:18;;;;;;;9.32;4.47;;;26.40;54.70;;;;;;7639324;22;81184;-69
2023/07/06 17:13:18;;;;;;;14.43;5.70;;;26.40;54.40;;;;;;7641768;22;79976;-72
2023/07/06 17:16:18;;;;;;;13.48;7.85;;;26.50;54.70;;;;;;7642156;22;80329;-73
2023/07/06 17:19:19;;;;;;;28.23;11.63;;;26.50;55.00;;;;;;7639985;22;80907;-70
2023/07/06 17:22:19;;;;;;;22.95;10.70;;;26.50;55.50;;;;;;7636431;22;82892;-73
2023/07/06 17:25:20;;;;;;;20.55;9.38;;;26.50;55.40;;;;;;7634513;22;83140;-71
2023/07/06 17:28:21;;;;;;;19.00;9.13;;;26.50;55.10;;;;;;7638615;22;82757;-70
2023/07/06 17:31:21;;;;;;;24.20;10.38;;;26.50;55.60;;;;;;7615536;22;82344;-73
2023/07/06 17:34:22;;;;;;;20.27;9.38;;;26.50;55.60;;;;;;7631541;22;83392;-75
2023/07/06 17:37:22;;;;;;;21.27;8.50;;;26.50;55.30;;;;;;7627410;22;83027;-73
2023/07/06 17:40:23;;;;;;;18.63;8.75;;;26.50;55.30;;;;;;7633885;22;80246;-69
2023/07/06 17:43:23;;;;;;;16.77;8.55;;;26.50;55.40;;;;;;7593642;22;81143;-70
2023/07/06 17:46:24;;;;;;;18.10;8.68;;;26.50;55.60;;;;;;7606333;22;81067;-65
2023/07/06 17:49:24;;;;;;;17.58;7.78;;;26.50;55.70;;;;;;7638207;22;81586;-63
2023/07/06 17:52:25;;;;;;;17.20;8.40;;;26.50;55.40;;;;;;7639010;22;80185;-68
2023/07/06 17:55:25;;;;;;;14.95;7.82;;;26.50;55.60;;;;;;7636615;22;81201;-67
2023/07/06 17:58:26;;;;;;;17.95;7.90;;;26.50;55.30;;;;;;7638827;22;80935;-67
2023/07/06 18:01:27;;;;;;;15.52;8.02;;;26.50;55.20;;;;;;7636461;22;80617;-64
2023/07/06 18:04:28;;;;;;;23.23;8.25;;;26.40;55.20;;;;;;7636614;22;81246;-74
2023/07/06 18:07:28;;;;;;;14.27;7.63;;;26.40;55.40;;;;;;7636851;22;81163;-70
2023/07/06 18:10:29;;;;;;;13.35;7.10;;;26.40;55.40;;;;;;7639574;22;80392;-73
2023/07/06 18:13:29;;;;;;;9.40;6.00;;;26.40;55.00;;;;;;7639013;22;80217;-75
2023/07/06 18:16:30;;;;;;;13.77;6.47;;;26.40;54.50;;;;;;7633391;22;80321;-74
2023/07/06 18:19:30;;;;;;;10.93;6.20;;;26.40;55.00;;;;;;7639855;22;80936;-74
2023/07/06 18:22:31;;;;;;;10.27;5.95;;;26.50;55.20;;;;;;7639033;22;81335;-72
2023/07/06 18:25:31;;;;;;;13.10;6.28;;;26.50;54.90;;;;;;7641165;22;80969;-72
2023/07/06 18:28:32;;;;;;;10.45;5.90;;;26.50;54.90;;;;;;7641023;22;80316;-74
2023/07/06 18:31:32;;;;;;;12.45;5.72;;;26.50;54.90;;;;;;7641228;22;80863;-75
2023/07/06 18:34:33;;;;;;;13.63;6.18;;;26.50;54.80;;;;;;7616847;22;80406;-72
2023/07/06 18:37:33;;;;;;;13.90;5.50;;;26.50;54.90;;;;;;7641808;22;80367;-72
2023/07/06 18:40:34;;;;;;;10.30;5.32;;;26.50;54.90;;;;;;7641842;22;80644;-73
2023/07/06 18:43:35;;;;;;;13.75;5.78;;;26.50;54.90;;;;;;7649239;22;80252;-73
2023/07/06 18:46:36;;;;;;;14.68;5.43;;;26.40;55.00;;;;;;7646146;22;81104;-66
2023/07/06 18:49:37;;;;;;;16.58;5.65;;;26.40;54.90;;;;;;7640495;22;80987;-66
2023/07/06 18:52:38;;;;;;;12.80;5.63;;;26.40;55.00;;;;;;7638704;22;80453;-65
2023/07/06 18:55:39;;;;;;;11.70;5.78;;;26.40;55.00;;;;;;7640321;22;80999;-65
2023/07/06 18:58:39;;;;;;;11.82;5.85;;;26.30;55.10;;;;;;7637851;22;80704;-66
2023/07/06 19:01:40;;;;;;;16.45;5.70;;;26.30;55.30;;;;;;7640377;22;80379;-66
2023/07/06 19:04:42;;;;;;;9.50;6.22;;;26.30;55.40;;;;;;7641959;22;80335;-69
2023/07/06 19:07:42;;;;;;;12.05;5.45;;;26.30;55.90;;;;;;7642785;22;80225;-70
2023/07/06 19:10:43;;;;;;;11.52;6.60;;;26.30;55.80;;;;;;7642027;22;81100;-67
2023/07/06 19:13:43;;;;;;;11.02;5.85;;;26.30;56.60;;;;;;7639772;22;80092;-68
2023/07/06 19:16:44;;;;;;;15.05;5.22;;;26.30;56.40;;;;;;7641142;22;80353;-68
2023/07/06 19:19:45;;;;;;;11.15;5.45;;;26.20;56.20;;;;;;7642647;22;80814;-66
2023/07/06 19:22:45;;;;;;;8.18;5.45;;;26.20;56.30;;;;;;7637344;22;80744;-67
2023/07/06 19:25:46;;;;;;;10.82;5.97;;;26.20;56.20;;;;;;7640556;22;81576;-69
2023/07/06 19:28:47;;;;;;;10.40;5.70;;;26.10;56.10;;;;;;7642470;22;80422;-74
2023/07/06 19:31:47;;;;;;;11.75;6.15;;;26.10;56.10;;;;;;7642380;22;81919;-72
2023/07/06 19:34:48;;;;;;;10.05;5.65;;;26.00;55.80;;;;;;7641595;22;80670;-64
2023/07/06 19:37:48;;;;;;;7.85;4.60;;;26.00;55.90;;;;;;7634162;22;80687;-66
2023/07/06 19:40:49;;;;;;;9.95;5.32;;;25.90;55.80;;;;;;7634173;22;81381;-66
2023/07/06 19:43:49;;;;;;;8.90;4.80;;;25.90;55.70;;;;;;7643154;22;81603;-74
2023/07/06 19:46:50;;;;;;;9.25;4.93;;;25.90;55.60;;;;;;7640753;22;80877;-66
2023/07/06 19:49:50;;;;;;;8.88;5.07;;;25.90;55.40;;;;;;7637021;22;80475;-71
2023/07/06 19:52:51;;;;;;;8.75;5.00;;;26.00;55.30;;;;;;7638792;22;82178;-67
2023/07/06 19:55:52;;;;;;;7.70;4.18;;;25.90;55.30;;;;;;7624983;22;82324;-68
2023/07/06 19:58:53;;;;;;;5.93;4.18;;;25.90;55.70;;;;;;7642640;22;80304;-67
2023/07/06 20:01:54;;;;;;;7.55;4.95;;;25.90;55.50;;;;;;7641756;22;80977;-72
2023/07/06 20:04:59;;;;;;;12.07;5.25;;;25.90;55.50;;;;;;7642381;22;80258;-73
2023/07/06 20:07:59;;;;;;;9.37;5.17;;;25.80;55.40;;;;;;7642225;22;80308;-71
2023/07/06 20:11:00;;;;;;;11.57;4.63;;;25.80;55.10;;;;;;7638167;22;80334;-72
2023/07/06 20:14:00;;;;;;;7.03;4.85;;;25.80;55.20;;;;;;7638265;22;80485;-74